sensor_id;sensor_type;location;lat;lon;timestamp;temperature;humidity
1644;DHT22;46825;51.99869940;8.49421771;2023-03-01T00:00:50;-1.20;99.90
1644;DHT22;46825;51.99869940;8.49421771;2023-03-01T00:01:51;-1.20;99.90
1644;DHT22;46825;51.99869940;8.49421771;2023-03-01T00:02:52;-1.20;99.90
1644;DHT22;46825;51.99869940;8.49421771;2023-03-01T00:03:53;-1.20;99.90
1644;DHT22;46825;51.99869940;8.49421771;2023-03-01T00:04:54;-1.20;99.90
1644;DHT22;46825;51.99869940;8.49421771;2023-03-01T00:05:55;-1.20;99.90
1644;DHT22;46825;51.99869940;8.49421771;2023-03-01T00:06:55;-1.10;99.90
1644;DHT22;46825;51.99869940;8.49421771;2023-03-01T00:07:56;-1.10;99.90
1644;DHT22;46825;51.99869940;8.49421771;2023-03-01T00:08:56;-1.10;99.90
1644;DHT22;46825;51.99869940;8.49421771;2023-03-01T00:09:57;-1.10;99.90
1644;DHT22;46825;51.99869940;8.49421771;2023-03-01T00:11:10;-1.10;99.90
1644;DHT22;46825;51.99869940;8.49421771;2023-03-01T00:12:12;-1.10;99.90
1644;DHT22;46825;51.99869940;8.49421771;2023-03-01T00:13:12;-1.10;99.90
1644;DHT22;46825;51.99869940;8.49421771;2023-03-01T00:14:13;-1.10;99.90
1644;DHT22;46825;51.99869940;8.49421771;2023-03-01T00:15:15;-1.10;99.90
1644;DHT22;46825;51.99869940;8.49421771;2023-03-01T00:16:22;-1.10;99.90
1644;DHT22;46825;51.99869940;8.49421771;2023-03-01T00:17:23;-1.10;99.90
1644;DHT22;46825;51.99869940;8.49421771;2023-03-01T00:18:23;-1.10;99.90
1644;DHT22;46825;51.99869940;8.49421771;2023-03-01T00:19:24;-1.10;99.90
1644;DHT22;46825;51.99869940;8.49421771;2023-03-01T00:20:25;-1.10;99.90
1644;DHT22;46825;51.99869940;8.49421771;2023-03-01T00:21:26;-1.20;99.90
1644;DHT22;46825;51.99869940;8.49421771;2023-03-01T00:22:27;-1.20;99.90
1644;DHT22;46825;51.99869940;8.49421771;2023-03-01T00:23:31;-1.10;99.90
1644;DHT22;46825;51.99869940;8.49421771;2023-03-01T00:24:32;-1.00;99.90
1644;DHT22;46825;51.99869940;8.49421771;2023-03-01T00:25:32;-1.10;99.90
1644;DHT22;46825;51.99869940;8.49421771;2023-03-01T00:26:33;-1.10;99.90
1644;DHT22;46825;51.99869940;8.49421771;2023-03-01T00:27:34;-1.00;99.90
1644;DHT22;46825;51.99869940;8.49421771;2023-03-01T00:28:35;-1.00;99.90
1644;DHT22;46825;51.99869940;8.49421771;2023-03-01T00:29:36;-1.10;99.90
1644;DHT22;46825;51.99869940;8.49421771;2023-03-01T00:30:36;-1.10;99.90
1644;DHT22;46825;51.99869940;8.49421771;2023-03-01T00:31:37;-1.10;99.90
1644;DHT22;46825;51.99869940;8.49421771;2023-03-01T00:32:37;-1.00;99.90
1644;DHT22;46825;51.99869940;8.49421771;2023-03-01T00:33:38;-1.00;99.90
1644;DHT22;46825;51.99869940;8.49421771;2023-03-01T00:34:39;-1.00;99.90
1644;DHT22;46825;51.99869940;8.49421771;2023-03-01T00:35:39;-0.80;99.90
1644;DHT22;46825;51.99869940;8.49421771;2023-03-01T00:36:40;-0.90;99.90
1644;DHT22;46825;51.99869940;8.49421771;2023-03-01T00:37:41;-1.00;99.90
1644;DHT22;46825;51.99869940;8.49421771;2023-03-01T00:38:43;-1.00;99.90
1644;DHT22;46825;51.99869940;8.49421771;2023-03-01T00:39:44;-1.00;99.90
1644;DHT22;46825;51.99869940;8.49421771;2023-03-01T00:40:44;-1.20;99.90
1644;DHT22;46825;51.99869940;8.49421771;2023-03-01T00:41:45;-1.20;99.90
1644;DHT22;46825;51.99869940;8.49421771;2023-03-01T00:42:46;-1.20;99.90
1644;DHT22;46825;51.99869940;8.49421771;2023-03-01T00:43:46;-1.30;99.90
1644;DHT22;46825;51.99869940;8.49421771;2023-03-01T00:44:47;-1.20;99.90
1644;DHT22;46825;51.99869940;8.49421771;2023-03-01T00:45:47;-1.30;99.90
1644;DHT22;46825;51.99869940;8.49421771;2023-03-01T00:46:48;-1.30;99.90
1644;DHT22;46825;51.99869940;8.49421771;2023-03-01T00:47:49;-1.30;99.90
1644;DHT22;46825;51.99869940;8.49421771;2023-03-01T00:48:50;-1.30;99.90
1644;DHT22;46825;51.99869940;8.49421771;2023-03-01T00:49:51;-1.40;99.90
1644;DHT22;46825;51.99869940;8.49421771;2023-03-01T00:50:52;-1.40;99.90
1644;DHT22;46825;51.99869940;8.49421771;2023-03-01T00:51:53;-1.40;99.90
1644;DHT22;46825;51.99869940;8.49421771;2023-03-01T00:52:55;-1.40;99.90
1644;DHT22;46825;51.99869940;8.49421771;2023-03-01T00:53:58;-1.50;99.90
1644;DHT22;46825;51.99869940;8.49421771;2023-03-01T00:54:58;-1.50;99.90
1644;DHT22;46825;51.99869940;8.49421771;2023-03-01T00:55:59;-1.50;99.90
1644;DHT22;46825;51.99869940;8.49421771;2023-03-01T00:57:00;-1.50;99.90
1644;DHT22;46825;51.99869940;8.49421771;2023-03-01T00:58:01;-1.50;99.90
1644;DHT22;46825;51.99869940;8.49421771;2023-03-01T00:59:02;-1.60;99.90
1644;DHT22;46825;51.99869940;8.49421771;2023-03-01T01:00:04;-1.60;99.90
1644;DHT22;46825;51.99869940;8.49421771;2023-03-01T01:01:13;-1.60;99.90
1644;DHT22;46825;51.99869940;8.49421771;2023-03-01T01:02:20;-1.60;99.90
1644;DHT22;46825;51.99869940;8.49421771;2023-03-01T01:03:21;-1.60;99.90
1644;DHT22;46825;51.99869940;8.49421771;2023-03-01T01:04:22;-1.60;99.90
1644;DHT22;46825;51.99869940;8.49421771;2023-03-01T01:05:22;-1.60;99.90
1644;DHT22;46825;51.99869940;8.49421771;2023-03-01T01:06:25;-2.60;99.90
1644;DHT22;46825;51.99869940;8.49421771;2023-03-01T01:07:26;-1.60;99.90
1644;DHT22;46825;51.99869940;8.49421771;2023-03-01T01:08:27;-1.50;99.90
1644;DHT22;46825;51.99869940;8.49421771;2023-03-01T01:09:27;-1.50;99.90
1644;DHT22;46825;51.99869940;8.49421771;2023-03-01T01:10:28;-1.40;99.90
1644;DHT22;46825;51.99869940;8.49421771;2023-03-01T01:11:29;-1.40;99.90
1644;DHT22;46825;51.99869940;8.49421771;2023-03-01T01:12:30;-1.40;99.90
1644;DHT22;46825;51.99869940;8.49421771;2023-03-01T01:13:31;-1.30;99.90
1644;DHT22;46825;51.99869940;8.49421771;2023-03-01T01:14:31;-1.40;99.90
1644;DHT22;46825;51.99869940;8.49421771;2023-03-01T01:15:36;-1.40;99.90
1644;DHT22;46825;51.99869940;8.49421771;2023-03-01T01:16:37;-1.40;99.90
1644;DHT22;46825;51.99869940;8.49421771;2023-03-01T01:17:37;-1.40;99.90
1644;DHT22;46825;51.99869940;8.49421771;2023-03-01T01:18:39;-1.40;99.90
1644;DHT22;46825;51.99869940;8.49421771;2023-03-01T01:19:39;-1.40;99.90
1644;DHT22;46825;51.99869940;8.49421771;2023-03-01T01:20:40;-1.50;99.90
1644;DHT22;46825;51.99869940;8.49421771;2023-03-01T01:21:41;-1.50;99.90
1644;DHT22;46825;51.99869940;8.49421771;2023-03-01T01:22:43;-1.50;99.90
1644;DHT22;46825;51.99869940;8.49421771;2023-03-01T01:23:45;-1.50;99.90
1644;DHT22;46825;51.99869940;8.49421771;2023-03-01T01:24:45;-1.50;99.90
1644;DHT22;46825;51.99869940;8.49421771;2023-03-01T01:25:46;-1.40;99.90
1644;DHT22;46825;51.99869940;8.49421771;2023-03-01T01:26:47;-1.40;99.90
1644;DHT22;46825;51.99869940;8.49421771;2023-03-01T01:27:48;-1.40;99.90
1644;DHT22;46825;51.99869940;8.49421771;2023-03-01T01:28:49;-1.50;99.90
1644;DHT22;46825;51.99869940;8.49421771;2023-03-01T01:29:50;-1.40;99.90
1644;DHT22;46825;51.99869940;8.49421771;2023-03-01T01:30:50;-1.30;99.90
1644;DHT22;46825;51.99869940;8.49421771;2023-03-01T01:31:51;-1.40;99.90
1644;DHT22;46825;51.99869940;8.49421771;2023-03-01T01:32:51;-1.30;99.90
1644;DHT22;46825;51.99869940;8.49421771;2023-03-01T01:33:53;-1.30;99.90
1644;DHT22;46825;51.99869940;8.49421771;2023-03-01T01:34:53;-1.30;99.90
1644;DHT22;46825;51.99869940;8.49421771;2023-03-01T01:35:54;-1.20;99.90
1644;DHT22;46825;51.99869940;8.49421771;2023-03-01T01:36:55;-1.20;99.90
1644;DHT22;46825;51.99869940;8.49421771;2023-03-01T01:37:55;-1.20;99.90
1644;DHT22;46825;51.99869940;8.49421771;2023-03-01T01:38:56;-1.20;99.90
1644;DHT22;46825;51.99869940;8.49421771;2023-03-01T01:39:58;-1.20;99.90
1644;DHT22;46825;51.99869940;8.49421771;2023-03-01T01:40:59;-1.20;99.90
1644;DHT22;46825;51.99869940;8.49421771;2023-03-01T01:42:01;-1.30;99.90
1644;DHT22;46825;51.99869940;8.49421771;2023-03-01T01:43:02;1.30;99.90
1644;DHT22;46825;51.99869940;8.49421771;2023-03-01T01:44:12;-1.30;99.90
1644;DHT22;46825;51.99869940;8.49421771;2023-03-01T01:45:33;-1.30;99.90
1644;DHT22;46825;51.99869940;8.49421771;2023-03-01T01:46:38;-1.30;99.90
1644;DHT22;46825;51.99869940;8.49421771;2023-03-01T01:47:40;-1.30;99.90
1644;DHT22;46825;51.99869940;8.49421771;2023-03-01T01:48:45;-1.30;99.90
1644;DHT22;46825;51.99869940;8.49421771;2023-03-01T01:49:56;-1.30;99.90
1644;DHT22;46825;51.99869940;8.49421771;2023-03-01T01:50:59;-1.30;99.90
1644;DHT22;46825;51.99869940;8.49421771;2023-03-01T01:52:20;-1.40;99.90
1644;DHT22;46825;51.99869940;8.49421771;2023-03-01T01:53:24;-1.40;99.90
1644;DHT22;46825;51.99869940;8.49421771;2023-03-01T01:55:41;-1.40;99.90
1644;DHT22;46825;51.99869940;8.49421771;2023-03-01T01:56:50;-1.40;99.90
1644;DHT22;46825;51.99869940;8.49421771;2023-03-01T01:57:54;-1.40;99.90
1644;DHT22;46825;51.99869940;8.49421771;2023-03-01T01:58:56;-1.40;99.90
1644;DHT22;46825;51.99869940;8.49421771;2023-03-01T01:59:59;-1.40;99.90
1644;DHT22;46825;51.99869940;8.49421771;2023-03-01T02:01:00;-1.40;99.90
1644;DHT22;46825;51.99869940;8.49421771;2023-03-01T02:02:03;-1.40;99.90
1644;DHT22;46825;51.99869940;8.49421771;2023-03-01T02:03:08;-1.50;99.90
1644;DHT22;46825;51.99869940;8.49421771;2023-03-01T02:04:10;-1.40;99.90
1644;DHT22;46825;51.99869940;8.49421771;2023-03-01T02:06:41;-1.60;99.90
1644;DHT22;46825;51.99869940;8.49421771;2023-03-01T02:07:45;-1.70;99.90
1644;DHT22;46825;51.99869940;8.49421771;2023-03-01T02:08:48;-1.80;99.90
1644;DHT22;46825;51.99869940;8.49421771;2023-03-01T02:09:51;-1.90;99.90
1644;DHT22;46825;51.99869940;8.49421771;2023-03-01T02:10:54;-1.90;99.90
1644;DHT22;46825;51.99869940;8.49421771;2023-03-01T02:11:56;-1.90;99.90
1644;DHT22;46825;51.99869940;8.49421771;2023-03-01T02:12:57;-1.90;99.90
1644;DHT22;46825;51.99869940;8.49421771;2023-03-01T02:13:58;-1.90;99.90
1644;DHT22;46825;51.99869940;8.49421771;2023-03-01T02:14:59;-1.80;99.90
1644;DHT22;46825;51.99869940;8.49421771;2023-03-01T02:16:03;-1.90;99.90
1644;DHT22;46825;51.99869940;8.49421771;2023-03-01T02:17:03;-1.80;99.90
1644;DHT22;46825;51.99869940;8.49421771;2023-03-01T02:18:05;0.00;99.90
1644;DHT22;46825;51.99869940;8.49421771;2023-03-01T02:19:08;-1.80;99.90
1644;DHT22;46825;51.99869940;8.49421771;2023-03-01T02:21:30;-1.70;99.90
1644;DHT22;46825;51.99869940;8.49421771;2023-03-01T02:22:37;-1.70;99.90
1644;DHT22;46825;51.99869940;8.49421771;2023-03-01T02:23:39;-1.70;99.90
1644;DHT22;46825;51.99869940;8.49421771;2023-03-01T02:26:25;-1.80;99.90
1644;DHT22;46825;51.99869940;8.49421771;2023-03-01T02:27:40;-1.70;99.90
1644;DHT22;46825;51.99869940;8.49421771;2023-03-01T02:28:45;-1.70;99.90
1644;DHT22;46825;51.99869940;8.49421771;2023-03-01T02:29:45;-1.60;99.90
1644;DHT22;46825;51.99869940;8.49421771;2023-03-01T02:30:48;-1.60;99.90
1644;DHT22;46825;51.99869940;8.49421771;2023-03-01T02:32:08;-1.60;99.90
1644;DHT22;46825;51.99869940;8.49421771;2023-03-01T02:33:08;-1.50;99.90
1644;DHT22;46825;51.99869940;8.49421771;2023-03-01T02:34:12;-1.50;99.90
1644;DHT22;46825;51.99869940;8.49421771;2023-03-01T02:35:15;-1.50;99.90
1644;DHT22;46825;51.99869940;8.49421771;2023-03-01T02:36:19;-1.30;99.90
1644;DHT22;46825;51.99869940;8.49421771;2023-03-01T02:37:21;-1.40;99.90
1644;DHT22;46825;51.99869940;8.49421771;2023-03-01T02:38:25;-1.40;99.90
1644;DHT22;46825;51.99869940;8.49421771;2023-03-01T02:39:29;-1.50;99.90
1644;DHT22;46825;51.99869940;8.49421771;2023-03-01T02:40:31;-1.50;99.90
1644;DHT22;46825;51.99869940;8.49421771;2023-03-01T02:41:36;-1.50;99.90
1644;DHT22;46825;51.99869940;8.49421771;2023-03-01T02:42:45;-1.50;99.90
1644;DHT22;46825;51.99869940;8.49421771;2023-03-01T02:43:47;-1.50;99.90
1644;DHT22;46825;51.99869940;8.49421771;2023-03-01T02:44:49;-1.50;99.90
1644;DHT22;46825;51.99869940;8.49421771;2023-03-01T02:45:51;-1.50;99.90
1644;DHT22;46825;51.99869940;8.49421771;2023-03-01T02:46:55;-0.50;99.90
1644;DHT22;46825;51.99869940;8.49421771;2023-03-01T02:47:57;-1.60;99.90
1644;DHT22;46825;51.99869940;8.49421771;2023-03-01T02:48:58;-1.60;99.90
1644;DHT22;46825;51.99869940;8.49421771;2023-03-01T02:49:59;-1.60;99.90
1644;DHT22;46825;51.99869940;8.49421771;2023-03-01T02:51:24;-1.50;99.90
1644;DHT22;46825;51.99869940;8.49421771;2023-03-01T02:52:44;-1.50;99.90
1644;DHT22;46825;51.99869940;8.49421771;2023-03-01T02:54:27;-1.50;99.90
1644;DHT22;46825;51.99869940;8.49421771;2023-03-01T02:55:29;-1.50;99.90
1644;DHT22;46825;51.99869940;8.49421771;2023-03-01T02:56:29;-1.50;99.90
1644;DHT22;46825;51.99869940;8.49421771;2023-03-01T02:57:31;-1.50;99.90
1644;DHT22;46825;51.99869940;8.49421771;2023-03-01T02:58:33;-1.50;99.90
1644;DHT22;46825;51.99869940;8.49421771;2023-03-01T02:59:45;-1.50;99.90
1644;DHT22;46825;51.99869940;8.49421771;2023-03-01T03:00:46;-1.50;99.90
1644;DHT22;46825;51.99869940;8.49421771;2023-03-01T03:01:49;-1.50;99.90
1644;DHT22;46825;51.99869940;8.49421771;2023-03-01T03:02:51;-1.50;99.90
1644;DHT22;46825;51.99869940;8.49421771;2023-03-01T03:03:53;-1.50;99.90
1644;DHT22;46825;51.99869940;8.49421771;2023-03-01T03:04:53;-1.60;99.90
1644;DHT22;46825;51.99869940;8.49421771;2023-03-01T03:05:54;-1.60;99.90
1644;DHT22;46825;51.99869940;8.49421771;2023-03-01T03:06:54;-1.60;99.90
1644;DHT22;46825;51.99869940;8.49421771;2023-03-01T03:07:56;-1.60;99.90
1644;DHT22;46825;51.99869940;8.49421771;2023-03-01T03:08:57;-1.50;99.90
1644;DHT22;46825;51.99869940;8.49421771;2023-03-01T03:09:57;-1.50;99.90
1644;DHT22;46825;51.99869940;8.49421771;2023-03-01T03:10:58;-1.60;99.90
1644;DHT22;46825;51.99869940;8.49421771;2023-03-01T03:11:59;-1.60;99.90
1644;DHT22;46825;51.99869940;8.49421771;2023-03-01T03:13:02;-1.60;99.90
1644;DHT22;46825;51.99869940;8.49421771;2023-03-01T03:14:03;-1.50;99.90
1644;DHT22;46825;51.99869940;8.49421771;2023-03-01T03:15:05;-1.80;99.90
1644;DHT22;46825;51.99869940;8.49421771;2023-03-01T03:16:09;-1.80;99.90
1644;DHT22;46825;51.99869940;8.49421771;2023-03-01T03:17:09;-1.80;99.90
1644;DHT22;46825;51.99869940;8.49421771;2023-03-01T03:18:13;-1.80;99.90
1644;DHT22;46825;51.99869940;8.49421771;2023-03-01T03:19:17;-1.80;99.90
1644;DHT22;46825;51.99869940;8.49421771;2023-03-01T03:20:20;-1.80;99.90
1644;DHT22;46825;51.99869940;8.49421771;2023-03-01T03:21:21;-1.80;99.90
1644;DHT22;46825;51.99869940;8.49421771;2023-03-01T03:22:21;-1.80;99.90
1644;DHT22;46825;51.99869940;8.49421771;2023-03-01T03:23:22;-1.80;99.90
1644;DHT22;46825;51.99869940;8.49421771;2023-03-01T03:24:22;-1.80;99.90
1644;DHT22;46825;51.99869940;8.49421771;2023-03-01T03:25:24;-1.80;99.90
1644;DHT22;46825;51.99869940;8.49421771;2023-03-01T03:26:25;-1.80;99.90
1644;DHT22;46825;51.99869940;8.49421771;2023-03-01T03:27:25;-1.80;99.90
1644;DHT22;46825;51.99869940;8.49421771;2023-03-01T03:28:26;-1.80;99.90
1644;DHT22;46825;51.99869940;8.49421771;2023-03-01T03:29:27;-1.80;99.90
1644;DHT22;46825;51.99869940;8.49421771;2023-03-01T03:30:30;-1.60;99.90
1644;DHT22;46825;51.99869940;8.49421771;2023-03-01T03:31:31;-1.80;99.90
1644;DHT22;46825;51.99869940;8.49421771;2023-03-01T03:32:31;-1.90;99.90
1644;DHT22;46825;51.99869940;8.49421771;2023-03-01T03:33:32;-1.80;99.90
1644;DHT22;46825;51.99869940;8.49421771;2023-03-01T03:34:33;-1.90;99.90
1644;DHT22;46825;51.99869940;8.49421771;2023-03-01T03:35:39;-1.90;99.90
1644;DHT22;46825;51.99869940;8.49421771;2023-03-01T03:36:40;-1.90;99.90
1644;DHT22;46825;51.99869940;8.49421771;2023-03-01T03:37:41;-1.90;99.90
1644;DHT22;46825;51.99869940;8.49421771;2023-03-01T03:39:01;-1.90;99.90
1644;DHT22;46825;51.99869940;8.49421771;2023-03-01T03:40:01;-1.90;99.90
1644;DHT22;46825;51.99869940;8.49421771;2023-03-01T03:41:04;-1.90;99.90
1644;DHT22;46825;51.99869940;8.49421771;2023-03-01T03:42:05;-1.80;99.90
1644;DHT22;46825;51.99869940;8.49421771;2023-03-01T03:43:10;-1.80;99.90
1644;DHT22;46825;51.99869940;8.49421771;2023-03-01T03:44:10;-1.80;99.90
1644;DHT22;46825;51.99869940;8.49421771;2023-03-01T03:45:11;-1.80;99.90
1644;DHT22;46825;51.99869940;8.49421771;2023-03-01T03:46:12;-1.90;99.90
1644;DHT22;46825;51.99869940;8.49421771;2023-03-01T03:47:12;-1.90;99.90
1644;DHT22;46825;51.99869940;8.49421771;2023-03-01T03:48:13;-1.90;99.90
1644;DHT22;46825;51.99869940;8.49421771;2023-03-01T03:49:13;-1.90;99.90
1644;DHT22;46825;51.99869940;8.49421771;2023-03-01T03:50:16;-1.90;99.90
1644;DHT22;46825;51.99869940;8.49421771;2023-03-01T03:51:17;-1.80;99.90
1644;DHT22;46825;51.99869940;8.49421771;2023-03-01T03:52:18;-1.90;99.90
1644;DHT22;46825;51.99869940;8.49421771;2023-03-01T03:53:19;-1.90;99.90
1644;DHT22;46825;51.99869940;8.49421771;2023-03-01T03:54:20;-1.00;99.90
1644;DHT22;46825;51.99869940;8.49421771;2023-03-01T03:55:21;-1.90;99.90
1644;DHT22;46825;51.99869940;8.49421771;2023-03-01T03:56:22;-1.90;99.90
1644;DHT22;46825;51.99869940;8.49421771;2023-03-01T03:57:26;-1.90;99.90
1644;DHT22;46825;51.99869940;8.49421771;2023-03-01T03:58:26;-1.90;99.90
1644;DHT22;46825;51.99869940;8.49421771;2023-03-01T03:59:27;-1.80;99.90
1644;DHT22;46825;51.99869940;8.49421771;2023-03-01T04:00:28;-1.80;99.90
1644;DHT22;46825;51.99869940;8.49421771;2023-03-01T04:01:29;-1.90;99.90
1644;DHT22;46825;51.99869940;8.49421771;2023-03-01T04:02:30;-1.90;99.90
1644;DHT22;46825;51.99869940;8.49421771;2023-03-01T04:03:32;-1.90;99.90
1644;DHT22;46825;51.99869940;8.49421771;2023-03-01T04:04:33;-3.00;99.90
1644;DHT22;46825;51.99869940;8.49421771;2023-03-01T04:05:34;-0.90;99.90
1644;DHT22;46825;51.99869940;8.49421771;2023-03-01T04:06:35;-1.90;99.90
1644;DHT22;46825;51.99869940;8.49421771;2023-03-01T04:07:36;-1.90;99.90
1644;DHT22;46825;51.99869940;8.49421771;2023-03-01T04:08:38;-1.90;99.90
1644;DHT22;46825;51.99869940;8.49421771;2023-03-01T04:09:38;-1.90;99.90
1644;DHT22;46825;51.99869940;8.49421771;2023-03-01T04:10:42;-1.90;99.90
1644;DHT22;46825;51.99869940;8.49421771;2023-03-01T04:11:43;-1.90;99.90
1644;DHT22;46825;51.99869940;8.49421771;2023-03-01T04:12:44;-2.00;99.90
1644;DHT22;46825;51.99869940;8.49421771;2023-03-01T04:13:45;-2.00;99.90
1644;DHT22;46825;51.99869940;8.49421771;2023-03-01T04:14:45;-2.00;99.90
1644;DHT22;46825;51.99869940;8.49421771;2023-03-01T04:15:49;-2.00;99.90
1644;DHT22;46825;51.99869940;8.49421771;2023-03-01T04:16:51;-2.10;99.90
1644;DHT22;46825;51.99869940;8.49421771;2023-03-01T04:17:52;-2.10;99.90
1644;DHT22;46825;51.99869940;8.49421771;2023-03-01T04:18:53;-2.10;99.90
1644;DHT22;46825;51.99869940;8.49421771;2023-03-01T04:19:54;-2.10;99.90
1644;DHT22;46825;51.99869940;8.49421771;2023-03-01T04:20:54;-2.00;99.90
1644;DHT22;46825;51.99869940;8.49421771;2023-03-01T04:21:55;-2.10;99.90
1644;DHT22;46825;51.99869940;8.49421771;2023-03-01T04:24:13;-2.00;99.90
1644;DHT22;46825;51.99869940;8.49421771;2023-03-01T04:25:13;-2.00;99.90
1644;DHT22;46825;51.99869940;8.49421771;2023-03-01T04:26:14;-2.00;99.90
1644;DHT22;46825;51.99869940;8.49421771;2023-03-01T04:27:15;-2.00;99.90
1644;DHT22;46825;51.99869940;8.49421771;2023-03-01T04:28:16;-2.00;99.90
1644;DHT22;46825;51.99869940;8.49421771;2023-03-01T04:29:17;-1.90;99.90
1644;DHT22;46825;51.99869940;8.49421771;2023-03-01T04:30:17;-2.00;99.90
1644;DHT22;46825;51.99869940;8.49421771;2023-03-01T04:31:19;-2.00;99.90
1644;DHT22;46825;51.99869940;8.49421771;2023-03-01T04:32:21;-2.00;99.90
1644;DHT22;46825;51.99869940;8.49421771;2023-03-01T04:33:23;-2.00;99.90
1644;DHT22;46825;51.99869940;8.49421771;2023-03-01T04:34:23;-1.90;99.90
1644;DHT22;46825;51.99869940;8.49421771;2023-03-01T04:35:24;-2.00;99.90
1644;DHT22;46825;51.99869940;8.49421771;2023-03-01T04:36:27;-1.90;99.90
1644;DHT22;46825;51.99869940;8.49421771;2023-03-01T04:37:28;-1.90;99.90
1644;DHT22;46825;51.99869940;8.49421771;2023-03-01T04:38:29;-1.90;99.90
1644;DHT22;46825;51.99869940;8.49421771;2023-03-01T04:39:30;-1.90;99.90
1644;DHT22;46825;51.99869940;8.49421771;2023-03-01T04:40:31;-1.90;99.90
1644;DHT22;46825;51.99869940;8.49421771;2023-03-01T04:41:32;-1.90;99.90
1644;DHT22;46825;51.99869940;8.49421771;2023-03-01T04:42:33;-1.90;99.90
1644;DHT22;46825;51.99869940;8.49421771;2023-03-01T04:43:34;-1.90;99.90
1644;DHT22;46825;51.99869940;8.49421771;2023-03-01T04:44:34;-1.90;99.90
1644;DHT22;46825;51.99869940;8.49421771;2023-03-01T04:45:35;-1.90;99.90
1644;DHT22;46825;51.99869940;8.49421771;2023-03-01T04:46:36;-1.90;99.90
1644;DHT22;46825;51.99869940;8.49421771;2023-03-01T04:47:36;-1.90;99.90
1644;DHT22;46825;51.99869940;8.49421771;2023-03-01T04:48:39;-1.90;99.90
1644;DHT22;46825;51.99869940;8.49421771;2023-03-01T04:49:40;-1.90;99.90
1644;DHT22;46825;51.99869940;8.49421771;2023-03-01T04:50:40;-2.00;99.90
1644;DHT22;46825;51.99869940;8.49421771;2023-03-01T04:51:41;-2.00;99.90
1644;DHT22;46825;51.99869940;8.49421771;2023-03-01T04:52:43;-2.00;99.90
1644;DHT22;46825;51.99869940;8.49421771;2023-03-01T04:53:44;-2.00;99.90
1644;DHT22;46825;51.99869940;8.49421771;2023-03-01T04:54:45;-2.00;99.90
1644;DHT22;46825;51.99869940;8.49421771;2023-03-01T04:55:45;-1.90;99.90
1644;DHT22;46825;51.99869940;8.49421771;2023-03-01T04:56:46;-1.90;99.90
1644;DHT22;46825;51.99869940;8.49421771;2023-03-01T04:57:46;-1.90;99.90
1644;DHT22;46825;51.99869940;8.49421771;2023-03-01T04:58:47;-1.90;99.90
1644;DHT22;46825;51.99869940;8.49421771;2023-03-01T04:59:47;-2.00;99.90
1644;DHT22;46825;51.99869940;8.49421771;2023-03-01T05:00:48;-0.10;99.90
1644;DHT22;46825;51.99869940;8.49421771;2023-03-01T05:01:50;-2.00;99.90
1644;DHT22;46825;51.99869940;8.49421771;2023-03-01T05:03:53;-2.00;99.90
1644;DHT22;46825;51.99869940;8.49421771;2023-03-01T05:04:54;-2.00;99.90
1644;DHT22;46825;51.99869940;8.49421771;2023-03-01T05:05:58;-2.00;99.90
1644;DHT22;46825;51.99869940;8.49421771;2023-03-01T05:06:59;-2.00;99.90
1644;DHT22;46825;51.99869940;8.49421771;2023-03-01T05:08:03;-2.00;99.90
1644;DHT22;46825;51.99869940;8.49421771;2023-03-01T05:09:04;-2.00;99.90
1644;DHT22;46825;51.99869940;8.49421771;2023-03-01T05:10:05;-2.10;99.90
1644;DHT22;46825;51.99869940;8.49421771;2023-03-01T05:11:06;-2.00;99.90
1644;DHT22;46825;51.99869940;8.49421771;2023-03-01T05:12:09;-2.10;99.90
1644;DHT22;46825;51.99869940;8.49421771;2023-03-01T05:13:09;-2.10;99.90
1644;DHT22;46825;51.99869940;8.49421771;2023-03-01T05:14:10;-2.10;99.90
1644;DHT22;46825;51.99869940;8.49421771;2023-03-01T05:15:11;-2.10;99.90
1644;DHT22;46825;51.99869940;8.49421771;2023-03-01T05:16:12;-2.10;99.90
1644;DHT22;46825;51.99869940;8.49421771;2023-03-01T05:17:12;-2.10;99.90
1644;DHT22;46825;51.99869940;8.49421771;2023-03-01T05:18:13;-2.10;99.90
1644;DHT22;46825;51.99869940;8.49421771;2023-03-01T05:19:13;-2.10;99.90
1644;DHT22;46825;51.99869940;8.49421771;2023-03-01T05:20:22;-2.20;99.90
1644;DHT22;46825;51.99869940;8.49421771;2023-03-01T05:21:23;-2.20;99.90
1644;DHT22;46825;51.99869940;8.49421771;2023-03-01T05:22:23;-2.20;99.90
1644;DHT22;46825;51.99869940;8.49421771;2023-03-01T05:23:24;-2.30;99.90
1644;DHT22;46825;51.99869940;8.49421771;2023-03-01T05:24:25;-2.30;99.90
1644;DHT22;46825;51.99869940;8.49421771;2023-03-01T05:25:27;-2.30;99.90
1644;DHT22;46825;51.99869940;8.49421771;2023-03-01T05:26:32;-4.90;99.90
1644;DHT22;46825;51.99869940;8.49421771;2023-03-01T05:27:34;-2.40;99.90
1644;DHT22;46825;51.99869940;8.49421771;2023-03-01T05:28:35;-2.40;99.90
1644;DHT22;46825;51.99869940;8.49421771;2023-03-01T05:29:38;-2.30;99.90
1644;DHT22;46825;51.99869940;8.49421771;2023-03-01T05:30:40;-2.30;99.90
1644;DHT22;46825;51.99869940;8.49421771;2023-03-01T05:31:40;-2.40;99.90
1644;DHT22;46825;51.99869940;8.49421771;2023-03-01T05:32:46;-2.40;99.90
1644;DHT22;46825;51.99869940;8.49421771;2023-03-01T05:33:47;-2.40;99.90
1644;DHT22;46825;51.99869940;8.49421771;2023-03-01T05:34:48;-2.40;99.90
1644;DHT22;46825;51.99869940;8.49421771;2023-03-01T05:35:49;-2.30;99.90
1644;DHT22;46825;51.99869940;8.49421771;2023-03-01T05:36:51;-2.30;99.90
1644;DHT22;46825;51.99869940;8.49421771;2023-03-01T05:37:53;-2.30;99.90
1644;DHT22;46825;51.99869940;8.49421771;2023-03-01T05:38:53;-2.30;99.90
1644;DHT22;46825;51.99869940;8.49421771;2023-03-01T05:39:54;-2.30;99.90
1644;DHT22;46825;51.99869940;8.49421771;2023-03-01T05:40:55;-2.30;99.90
1644;DHT22;46825;51.99869940;8.49421771;2023-03-01T05:41:57;-2.30;99.90
1644;DHT22;46825;51.99869940;8.49421771;2023-03-01T05:42:58;-2.30;99.90
1644;DHT22;46825;51.99869940;8.49421771;2023-03-01T05:43:58;-2.30;99.90
1644;DHT22;46825;51.99869940;8.49421771;2023-03-01T05:44:59;-2.30;99.90
1644;DHT22;46825;51.99869940;8.49421771;2023-03-01T05:46:00;-2.30;99.90
1644;DHT22;46825;51.99869940;8.49421771;2023-03-01T05:47:00;-2.30;99.90
1644;DHT22;46825;51.99869940;8.49421771;2023-03-01T05:48:01;-4.20;99.90
1644;DHT22;46825;51.99869940;8.49421771;2023-03-01T05:49:01;-2.30;99.90
1644;DHT22;46825;51.99869940;8.49421771;2023-03-01T05:50:02;-2.40;99.90
1644;DHT22;46825;51.99869940;8.49421771;2023-03-01T05:51:03;-2.40;99.90
1644;DHT22;46825;51.99869940;8.49421771;2023-03-01T05:52:04;-2.50;99.90